Stations météo

réclame
Mon MeteoGroup
Merida, Espagne (8331): Température de l'air & dewpoint: 14.10.2018 19:00:00 - 20.10.2018 19:00:00 (CEST)Merida, Espagne (8331): Vitesse du vent & gusts: 14.10.2018 19:00:00 - 20.10.2018 19:00:00 (CEST)Merida, Espagne (8331): Direction du vent: 14.10.2018 19:00:00 - 20.10.2018 19:00:00 (CEST)Merida, Espagne (8331): Quantités de précipitations: 14.10.2018 19:00:00 - 20.10.2018 19:00:00 (CEST)
Date & Time tt [°C] td [°C] ff [km/h] ff [knt] fx [km/h] fx [knt] dd rr [mm]
20.10.2018 19:00:00 - - - - - - - -
20.10.2018 18:00:00 19,8 11,3 7 4 19 10 E 0,0
20.10.2018 17:00:00 20,7 11,1 13 7 22 12 E 0,0
20.10.2018 16:00:00 21,5 11,2 16 8 25 14 E 0,0
20.10.2018 15:00:00 21,3 10,8 15 8 26 14 E 0,0
20.10.2018 14:00:00 20,9 10,6 12 6 26 14 ENE -
20.10.2018 13:00:00 20,3 11,4 11 6 26 14 ENE 0,0
20.10.2018 12:00:00 18,6 11,7 12 6 31 17 ENE 0,0
20.10.2018 11:00:00 17,5 12,8 11 6 18 10 NE 0,0
20.10.2018 10:00:00 15,1 13,3 7 4 14 8 ENE 0,0
20.10.2018 09:00:00 13,9 13,8 5 3 11 6 ENE 0,0
20.10.2018 08:00:00 12,9 12,7 1 1 6 3 NE -
20.10.2018 07:00:00 12,0 11,9 0 0 8 4 ESE 0,0
20.10.2018 06:00:00 13,0 12,8 0 0 4 2 N 0,0
20.10.2018 05:00:00 12,3 12,1 0 0 0 0 N 0,0
20.10.2018 04:00:00 13,0 12,8 0 0 5 3 N 0,0
20.10.2018 03:00:00 13,5 13,4 0 0 3 2 N 0,0
20.10.2018 02:00:00 14,0 13,9 1 0 4 2 WSW -
20.10.2018 01:00:00 14,5 14,1 1 0 5 3 NE 0,0
20.10.2018 00:00:00 16,0 15,3 0 0 0 0 N 0,0
19.10.2018 23:00:00 16,4 15,8 0 0 0 0 N 0,0
19.10.2018 22:00:00 16,4 15,4 0 0 4 2 N 0,0
19.10.2018 21:00:00 16,9 15,1 0 0 6 3 N 0,0
19.10.2018 20:00:00 - - - - - - - -
19.10.2018 19:00:00 17,3 14,0 9 5 19 11 E 0,1
19.10.2018 18:00:00 20,2 11,4 11 6 22 12 E 0,0
19.10.2018 17:00:00 20,7 11,3 12 7 22 12 E 0,0
19.10.2018 16:00:00 21,5 12,3 7 4 19 10 E 0,0
19.10.2018 15:00:00 20,8 12,5 9 5 21 11 ENE 0,0
19.10.2018 14:00:00 19,1 13,5 7 4 19 10 NE -
19.10.2018 13:00:00 18,9 13,1 8 4 14 7 NE 0,0
19.10.2018 12:00:00 17,0 14,0 3 1 8 5 NNW 0,0
19.10.2018 11:00:00 14,5 14,1 4 2 14 8 NE 0,0
19.10.2018 10:00:00 13,0 12,6 4 2 10 5 E 0,1
19.10.2018 09:00:00 12,3 12,1 0 0 17 9 N 0,4
19.10.2018 08:00:00 12,7 12,4 10 5 21 11 SSE -
19.10.2018 07:00:00 13,8 13,5 3 1 8 4 WSW 3,0
19.10.2018 06:00:00 13,8 13,5 3 2 10 5 SW 1,1
19.10.2018 05:00:00 14,0 13,7 2 1 8 5 SW 0,4
19.10.2018 04:00:00 14,3 13,9 0 0 7 4 WSW 1,1
19.10.2018 03:00:00 14,4 14,0 2 1 8 4 NE 0,2
19.10.2018 02:00:00 14,2 13,9 2 1 5 3 NNW -
19.10.2018 01:00:00 14,2 13,9 3 1 4 2 ESE 0,0
19.10.2018 00:00:00 14,3 13,9 0 0 9 5 E 0,0
18.10.2018 23:00:00 14,4 14,0 3 1 8 4 NE 0,1
18.10.2018 22:00:00 14,1 13,7 3 2 20 11 E 1,8
18.10.2018 21:00:00 14,6 14,1 10 5 20 11 E 1,2
18.10.2018 20:00:00 14,5 14,0 1 0 8 4 W -
18.10.2018 19:00:00 14,1 12,6 10 5 54 29 SSE 3,9
18.10.2018 18:00:00 19,9 13,6 11 6 19 11 SSW 0,0
18.10.2018 17:00:00 21,2 13,7 7 4 15 8 WSW 0,1
18.10.2018 16:00:00 21,0 13,0 3 1 10 6 WNW 0,0
18.10.2018 15:00:00 18,3 13,2 7 4 20 11 ESE 0,0
18.10.2018 14:00:00 16,4 14,0 13 7 22 12 SE -
18.10.2018 13:00:00 15,5 15,2 6 4 21 11 N 0,2
18.10.2018 12:00:00 14,1 13,9 6 3 18 10 NNE 2,2
18.10.2018 11:00:00 13,7 13,6 9 5 21 11 N 0,9
18.10.2018 10:00:00 13,8 13,7 7 4 13 7 NW 4,7
18.10.2018 09:00:00 13,4 13,3 1 0 14 7 NW 2,5
18.10.2018 08:00:00 13,6 13,5 8 5 17 9 WSW -
18.10.2018 07:00:00 13,6 13,5 5 3 15 8 NW 1,2
18.10.2018 06:00:00 13,7 13,6 6 3 16 9 W 3,5
18.10.2018 05:00:00 13,6 13,5 7 4 24 13 W 2,3
18.10.2018 04:00:00 14,1 13,7 5 3 19 10 W 0,0
18.10.2018 03:00:00 14,3 13,7 10 6 19 10 W 0,2
18.10.2018 02:00:00 15,6 13,3 9 5 17 9 WSW -
18.10.2018 01:00:00 16,5 13,6 5 3 14 8 SW 0,0
18.10.2018 00:00:00 16,8 13,8 6 4 13 7 WSW 0,0
17.10.2018 23:00:00 15,9 12,6 4 2 8 5 SW 0,0
17.10.2018 22:00:00 17,0 13,0 3 2 7 4 S 0,0
17.10.2018 21:00:00 19,2 11,8 3 2 13 7 W 0,0
17.10.2018 20:00:00 20,2 10,9 8 4 19 10 WNW -
17.10.2018 19:00:00 22,3 11,1 2 1 15 8 W 0,0
17.10.2018 18:00:00 22,7 10,5 5 3 19 10 W 0,0
17.10.2018 17:00:00 24,2 10,9 9 5 21 11 WSW 0,0
17.10.2018 16:00:00 24,8 11,3 8 4 19 10 W 0,0
17.10.2018 15:00:00 24,7 11,7 5 3 15 8 WSW 0,0
17.10.2018 14:00:00 23,9 12,2 5 3 14 7 W -
17.10.2018 13:00:00 21,2 10,6 3 1 8 4 SE 0,0
17.10.2018 12:00:00 20,3 12,3 2 1 6 4 WSW 0,0
17.10.2018 11:00:00 17,5 11,8 1 0 6 3 ENE 0,1
17.10.2018 10:00:00 15,5 15,2 0 0 6 3 N 0,0
17.10.2018 09:00:00 11,6 11,4 5 3 6 4 E 0,0
17.10.2018 08:00:00 10,5 10,3 1 1 4 2 WNW -
17.10.2018 07:00:00 10,5 10,3 0 0 4 2 N 0,0
17.10.2018 06:00:00 11,0 10,9 0 0 6 3 N 0,0
17.10.2018 05:00:00 11,4 11,2 4 2 6 3 W 0,0
17.10.2018 04:00:00 11,9 11,8 2 1 6 3 WSW 0,0
17.10.2018 03:00:00 11,9 11,8 0 0 6 3 N 0,0
17.10.2018 02:00:00 12,4 12,2 2 1 5 3 W -
17.10.2018 01:00:00 13,2 12,8 4 2 7 4 WSW 0,0
17.10.2018 00:00:00 13,7 13,1 5 3 7 4 WSW 0,0
16.10.2018 23:00:00 13,6 12,8 0 0 4 2 W 0,0
16.10.2018 22:00:00 13,8 13,1 0 0 3 1 N 0,0
16.10.2018 21:00:00 15,0 13,1 0 0 5 3 WNW 0,0
16.10.2018 20:00:00 16,6 11,9 3 1 5 3 W -
16.10.2018 19:00:00 20,6 10,0 2 1 9 5 W 0,0
16.10.2018 18:00:00 21,4 10,9 1 1 11 6 ESE 0,0
16.10.2018 17:00:00 22,0 10,5 3 2 15 8 E 0,0
16.10.2018 16:00:00 22,4 11,1 6 3 13 7 E 0,0
16.10.2018 15:00:00 21,6 11,9 6 4 13 7 NNE 0,0
16.10.2018 14:00:00 20,2 11,1 4 2 13 7 NNE -
16.10.2018 13:00:00 21,8 11,4 3 2 10 5 N 0,0
16.10.2018 12:00:00 17,9 11,9 4 2 12 7 NNE 0,0
16.10.2018 11:00:00 16,7 12,6 3 1 10 5 N 0,0
16.10.2018 10:00:00 16,2 12,7 3 2 12 7 N 0,0
16.10.2018 09:00:00 13,1 12,7 0 0 6 4 NW 0,0
16.10.2018 08:00:00 14,3 13,1 1 1 6 4 NNW -
16.10.2018 07:00:00 14,9 13,5 1 1 6 4 NNW 0,0
16.10.2018 06:00:00 14,9 13,8 1 1 6 3 N 0,0
16.10.2018 05:00:00 14,9 13,5 3 1 10 5 NNE 0,0
16.10.2018 04:00:00 14,7 13,6 3 2 13 7 ENE 0,0
16.10.2018 03:00:00 14,6 13,9 6 4 15 8 E 0,0
16.10.2018 02:00:00 14,5 13,8 6 3 16 9 ENE -
16.10.2018 01:00:00 14,8 14,3 7 4 15 8 ENE 0,0
16.10.2018 00:00:00 15,4 15,1 3 2 8 5 ENE 0,0
15.10.2018 23:00:00 15,5 15,2 3 1 8 4 ESE 0,0
15.10.2018 22:00:00 15,4 15,1 1 0 8 5 ESE 0,0
15.10.2018 21:00:00 15,4 15,1 4 2 9 5 E 0,0
15.10.2018 20:00:00 15,7 15,3 5 3 12 7 ESE -
15.10.2018 19:00:00 15,9 15,6 4 2 8 5 S 0,9
15.10.2018 18:00:00 17,1 15,1 1 1 10 5 WSW 0,0
15.10.2018 17:00:00 16,8 15,5 5 3 19 10 WSW 0,0
15.10.2018 16:00:00 16,2 15,7 11 6 20 11 SSW 0,5
15.10.2018 15:00:00 14,9 14,7 6 3 26 14 NW 4,5
15.10.2018 14:00:00 14,5 14,0 12 6 29 16 SSE -
15.10.2018 13:00:00 14,2 13,6 15 8 31 17 S 1,6
15.10.2018 12:00:00 14,1 12,5 11 6 26 14 S 0,4
15.10.2018 11:00:00 13,8 11,0 10 5 20 11 SE 0,0
15.10.2018 10:00:00 13,4 9,3 11 6 19 10 SE 0,0
15.10.2018 09:00:00 13,0 9,3 5 3 11 6 SE 0,0
15.10.2018 08:00:00 12,1 9,7 2 1 13 7 SSW -
15.10.2018 07:00:00 11,4 9,4 5 3 10 5 WSW 0,0
15.10.2018 06:00:00 10,7 9,8 3 1 8 4 SSW 0,0
15.10.2018 05:00:00 9,3 8,8 6 3 10 5 WSW 0,0
15.10.2018 04:00:00 9,7 8,8 5 3 13 7 WSW 0,0
15.10.2018 03:00:00 10,4 9,3 9 5 20 11 WSW 0,0
15.10.2018 02:00:00 11,0 9,6 6 3 16 9 WSW -
15.10.2018 01:00:00 11,4 9,3 10 5 18 10 WSW 0,0
15.10.2018 00:00:00 11,9 9,3 7 4 17 9 SW 0,0
14.10.2018 23:00:00 12,0 9,4 6 3 18 10 SW 0,0
14.10.2018 22:00:00 13,1 9,7 10 5 17 9 WSW 0,0
14.10.2018 21:00:00 13,9 9,6 9 5 27 15 WSW 0,0
14.10.2018 20:00:00 15,5 8,0 18 10 38 20 WSW -
14.10.2018 19:00:00 18,2 7,3 13 7 41 22 W 0,0

tt = Température de l'air
td = dewpoint
ff = Vitesse du vent
fx = gusts
dd = Direction du vent
rr = Quantités de précipitations

stations d'obs. à proximité